Time;durP1;ratioP1;P1;durP2;ratioP2;P2;SDS_P1;SDS_P2;PMS_P1;PMS_P2;Temp;Humidity;BMP_temperature;BMP_pressure;BME280_temperature;BME280_humidity;BME280_pressure;Samples;Min_cycle;Max_cycle;Signal;HPM_P1;HPM_P2
2022/05/20 00:01:23;;;;;;;;;5.50;4.75;22.20;99.90;;;;;;5015429;28;8856;-68
2022/05/20 00:03:53;;;;;;;;;7.50;6.00;22.20;99.90;;;;;;5016493;28;8883;-67
2022/05/20 00:06:24;;;;;;;;;6.25;5.00;22.30;99.90;;;;;;5027067;28;8853;-67
2022/05/20 00:08:55;;;;;;;;;6.00;6.00;22.40;99.90;;;;;;5018243;28;8841;-69
2022/05/20 00:11:26;;;;;;;;;5.00;5.00;22.40;99.90;;;;;;5007687;28;8882;-67
2022/05/20 00:13:59;;;;;;;;;7.00;6.25;22.40;99.90;;;;;;5016695;28;8857;-66
2022/05/20 00:16:32;;;;;;;;;5.75;5.75;22.40;99.90;;;;;;5008865;28;8833;-68
2022/05/20 00:19:05;;;;;;;;;8.00;5.00;22.50;99.90;;;;;;5011423;28;8858;-65
2022/05/20 00:21:41;;;;;;;;;6.00;6.00;22.50;99.90;;;;;;5013627;28;8813;-65
2022/05/20 00:24:11;;;;;;;;;7.00;5.25;22.50;99.90;;;;;;5015341;28;9558;-65
2022/05/20 00:26:43;;;;;;;;;6.75;6.00;22.50;99.90;;;;;;5012030;28;8878;-65
2022/05/20 00:29:14;;;;;;;;;6.00;4.50;22.50;99.90;;;;;;5014344;28;8857;-64
2022/05/20 00:31:46;;;;;;;;;8.75;8.00;22.50;99.90;;;;;;4994983;28;8888;-64
2022/05/20 00:34:16;;;;;;;;;7.25;6.00;22.50;99.90;;;;;;5017690;28;8864;-65
2022/05/20 00:36:48;;;;;;;;;7.75;7.25;22.50;99.90;;;;;;5017706;28;8881;-65
2022/05/20 00:39:20;;;;;;;;;5.25;4.00;22.50;99.90;;;;;;4999437;28;8857;-66
2022/05/20 00:41:53;;;;;;;;;9.50;7.25;22.50;99.90;;;;;;5027367;28;8999;-64
2022/05/20 00:44:22;;;;;;;;;6.25;6.25;22.40;99.90;;;;;;4995666;28;8826;-60
2022/05/20 00:46:53;;;;;;;;;7.25;6.50;22.50;99.90;;;;;;5015183;28;8865;-61
2022/05/20 00:49:23;;;;;;;;;5.50;5.50;22.40;99.90;;;;;;5018263;28;8861;-64
2022/05/20 00:51:58;;;;;;;;;7.25;5.75;22.50;99.90;;;;;;5019315;28;8825;-64
2022/05/20 00:54:35;;;;;;;;;9.00;5.75;22.20;99.90;;;;;;5014199;28;8902;-67
2022/05/20 00:57:18;;;;;;;;;7.25;7.25;22.10;99.90;;;;;;5010526;28;8867;-66
2022/05/20 01:00:00;;;;;;;;;13.00;7.75;22.10;99.90;;;;;;5012999;28;9599;-66
2022/05/20 01:02:33;;;;;;;;;7.00;7.00;22.00;99.90;;;;;;5013670;28;8857;-67
2022/05/20 01:05:19;;;;;;;;;5.25;5.25;21.90;99.90;;;;;;5014148;28;8862;-68
2022/05/20 01:07:54;;;;;;;;;6.25;6.25;21.90;99.90;;;;;;5012553;28;8865;-67
2022/05/20 01:10:27;;;;;;;;;6.00;6.00;21.80;99.90;;;;;;5007721;28;8900;-76
2022/05/20 01:13:00;;;;;;;;;10.00;7.00;21.80;99.90;;;;;;4992195;28;8896;-72
2022/05/20 01:15:33;;;;;;;;;7.25;7.25;21.70;99.90;;;;;;5016384;28;8850;-64
2022/05/20 01:18:06;;;;;;;;;8.25;6.50;21.60;99.90;;;;;;5014760;28;8828;-67
2022/05/20 01:20:44;;;;;;;;;7.00;7.00;21.50;99.90;;;;;;5015338;28;8892;-76
2022/05/20 01:23:23;;;;;;;;;7.50;7.50;21.50;99.90;;;;;;5011236;28;8814;-74
2022/05/20 01:25:58;;;;;;;;;9.50;8.25;21.50;99.90;;;;;;4995347;28;8831;-75
2022/05/20 01:28:32;;;;;;;;;6.67;6.67;21.50;99.90;;;;;;4992275;28;8865;-75
2022/05/20 01:31:14;;;;;;;;;5.67;5.33;21.40;99.90;;;;;;4999904;28;9107;-65
2022/05/20 01:33:52;;;;;;;;;7.67;7.67;21.40;99.90;;;;;;5012459;28;9043;-64
2022/05/20 01:36:27;;;;;;;;;7.00;7.00;21.40;99.90;;;;;;5012003;28;9005;-63
2022/05/20 01:39:00;;;;;;;;;8.00;6.00;21.30;99.90;;;;;;5014717;28;8935;-66
2022/05/20 01:41:44;;;;;;;;;6.00;6.00;21.30;99.90;;;;;;5013819;28;9024;-72
2022/05/20 01:44:26;;;;;;;;;9.33;8.00;21.30;99.90;;;;;;5016594;28;9024;-73
2022/05/20 01:47:26;;;;;;;;;11.00;9.00;21.30;99.90;;;;;;5014332;28;9182;-72
2022/05/20 01:50:17;;;;;;;;;5.33;5.33;21.30;99.90;;;;;;5013467;28;8955;-72
2022/05/20 01:53:28;;;;;;;;;9.00;7.00;21.20;99.90;;;;;;5027905;28;9495;-73
2022/05/20 01:56:34;;;;;;;;;8.00;8.00;21.20;99.90;;;;;;4990339;28;9250;-73
2022/05/20 01:59:34;;;;;;;;;6.67;6.33;21.20;99.90;;;;;;4994268;28;9357;-75
2022/05/20 02:02:12;;;;;;;;;6.33;6.33;21.20;99.90;;;;;;5011858;28;9233;-73
2022/05/20 02:04:56;;;;;;;;;13.67;11.33;21.10;99.90;;;;;;5009493;28;9237;-73
2022/05/20 02:07:32;;;;;;;;;8.00;8.00;21.00;99.90;;;;;;5013857;28;10355;-72
2022/05/20 02:10:48;;;;;;;;;7.67;7.00;21.00;99.90;;;;;;4990676;28;9535;-73
2022/05/20 02:13:23;;;;;;;;;10.33;9.33;21.00;99.90;;;;;;5004325;28;9249;-73
2022/05/20 02:16:04;;;;;;;;;6.67;6.67;20.90;99.90;;;;;;5018273;28;9997;-73
2022/05/20 02:18:46;;;;;;;;;10.00;8.00;20.80;99.90;;;;;;5017582;28;9555;-73
2022/05/20 02:21:25;;;;;;;;;9.33;7.00;20.80;99.90;;;;;;5013408;28;9180;-75
2022/05/20 02:24:02;;;;;;;;;17.67;11.67;20.70;99.90;;;;;;5015924;28;9384;-74
2022/05/20 02:26:49;;;;;;;;;7.00;6.00;20.60;99.90;;;;;;4994618;28;9412;-74
2022/05/20 02:29:32;;;;;;;;;8.67;8.67;20.50;99.90;;;;;;5014870;28;9455;-74
2022/05/20 02:32:38;;;;;;;;;6.00;6.00;20.40;99.90;;;;;;5014124;28;9443;-75
2022/05/20 02:35:12;;;;;;;;;5.67;5.67;20.50;99.90;;;;;;4987848;28;9273;-74
2022/05/20 02:37:44;;;;;;;;;8.00;7.00;20.50;99.90;;;;;;5004143;28;9318;-69
2022/05/20 02:40:20;;;;;;;;;11.00;8.00;20.40;99.90;;;;;;4994615;28;9511;-73
2022/05/20 02:42:52;;;;;;;;;7.00;7.00;20.30;99.90;;;;;;4985193;28;9591;-71
2022/05/20 02:45:24;;;;;;;;;8.00;8.00;20.20;99.90;;;;;;5009540;28;9463;-70
2022/05/20 02:47:56;;;;;;;;;9.33;7.67;20.20;99.90;;;;;;5009488;28;9684;-67
2022/05/20 02:50:30;;;;;;;;;6.33;6.00;20.10;99.90;;;;;;5016953;28;9568;-67
2022/05/20 02:53:05;;;;;;;;;8.33;7.00;19.90;99.90;;;;;;5005533;28;9473;-69
2022/05/20 02:55:38;;;;;;;;;7.00;6.00;19.80;99.90;;;;;;5013471;28;9564;-69
2022/05/20 03:04:10;;;;;;;;;8.75;8.00;19.70;99.90;;;;;;5010074;28;9867;-72
2022/05/20 03:06:52;;;;;;;;;8.25;8.25;19.70;99.90;;;;;;5004378;28;9896;-68
2022/05/20 03:09:31;;;;;;;;;7.00;7.00;19.70;99.90;;;;;;4998496;28;9957;-66
2022/05/20 03:12:02;;;;;;;;;8.00;8.00;19.80;99.90;;;;;;5011074;28;9909;-67
2022/05/20 03:14:35;;;;;;;;;6.50;5.75;19.80;99.90;;;;;;5010924;28;9887;-67
2022/05/20 03:17:07;;;;;;;;;9.00;7.75;19.70;99.90;;;;;;5014441;28;9799;-68
2022/05/20 03:19:40;;;;;;;;;15.50;12.50;19.60;99.90;;;;;;5011813;28;9799;-70
2022/05/20 03:22:13;;;;;;;;;10.50;10.50;19.40;99.90;;;;;;5017704;28;10131;-73
2022/05/20 03:24:44;;;;;;;;;8.75;8.00;19.40;99.90;;;;;;5014445;28;9882;-67
2022/05/20 03:27:17;;;;;;;;;4.75;4.75;19.40;99.90;;;;;;5015215;28;9931;-73
2022/05/20 03:29:51;;;;;;;;;7.50;7.50;19.50;99.90;;;;;;5020959;28;10042;-73
2022/05/20 03:32:24;;;;;;;;;10.25;8.50;19.50;99.90;;;;;;5021666;28;10017;-75
2022/05/20 03:34:58;;;;;;;;;9.75;9.75;19.40;99.90;;;;;;5020464;28;9997;-72
2022/05/20 03:37:36;;;;;;;;;10.25;10.25;19.30;99.90;;;;;;5013750;28;10202;-71
2022/05/20 03:40:07;;;;;;;;;10.00;9.50;19.30;99.90;;;;;;5002744;28;10212;-66
2022/05/20 03:42:41;;;;;;;;;11.25;10.25;19.20;99.90;;;;;;5021206;28;10279;-73
2022/05/20 03:45:15;;;;;;;;;9.50;8.00;19.10;99.90;;;;;;5024603;28;10010;-74
2022/05/20 03:47:49;;;;;;;;;10.75;9.00;19.10;99.90;;;;;;5024306;28;10443;-74
2022/05/20 03:50:19;;;;;;;;;10.75;10.25;19.10;99.90;;;;;;5017062;28;10804;-73
2022/05/20 03:52:55;;;;;;;;;10.75;10.75;19.00;99.90;;;;;;5011767;28;10227;-73
2022/05/20 03:55:26;;;;;;;;;9.50;7.50;18.90;99.90;;;;;;5014270;28;10196;-77
2022/05/20 03:57:57;;;;;;;;;10.50;8.50;18.90;99.90;;;;;;5010168;28;10299;-73
2022/05/20 04:00:30;;;;;;;;;12.00;10.25;18.90;99.90;;;;;;5019528;28;10290;-74
2022/05/20 04:03:01;;;;;;;;;12.00;11.25;18.90;99.90;;;;;;5030719;28;10108;-76
2022/05/20 04:05:33;;;;;;;;;11.50;10.50;18.80;99.90;;;;;;5001911;28;11039;-73
2022/05/20 04:08:03;;;;;;;;;14.00;10.25;18.60;99.90;;;;;;4999197;28;10361;-70
2022/05/20 04:10:35;;;;;;;;;11.50;11.50;18.50;99.90;;;;;;5019005;28;10632;-71
2022/05/20 04:13:06;;;;;;;;;10.25;10.25;18.50;99.90;;;;;;4999474;28;11078;-68
2022/05/20 04:15:40;;;;;;;;;15.25;11.75;18.50;99.90;;;;;;5015261;28;10533;-70
2022/05/20 04:18:11;;;;;;;;;9.50;9.50;18.50;99.90;;;;;;5001026;28;10436;-69
2022/05/20 04:20:45;;;;;;;;;13.00;11.50;18.50;99.90;;;;;;5019528;28;10580;-68
2022/05/20 04:23:20;;;;;;;;;11.50;10.50;18.50;99.90;;;;;;4990735;28;10588;-70
2022/05/20 04:25:51;;;;;;;;;10.75;9.00;18.40;99.90;;;;;;4995747;28;10754;-70
2022/05/20 04:28:23;;;;;;;;;9.50;9.50;18.30;99.90;;;;;;5027649;28;10635;-71
2022/05/20 04:31:00;;;;;;;;;12.00;11.25;18.30;99.90;;;;;;5018637;28;11252;-67
2022/05/20 04:33:31;;;;;;;;;13.00;10.50;18.30;99.90;;;;;;5031344;28;10566;-70
2022/05/20 04:36:05;;;;;;;;;8.25;8.25;18.30;99.90;;;;;;4998104;28;10566;-71
2022/05/20 04:38:37;;;;;;;;;11.00;9.50;18.30;99.90;;;;;;5008035;28;10569;-70
2022/05/20 04:46:57;;;;;;;;;15.25;13.25;18.30;99.90;;;;;;5017425;28;10643;-68
2022/05/20 04:49:29;;;;;;;;;9.50;9.00;18.30;99.90;;;;;;5015961;28;11679;-69
2022/05/20 04:52:00;;;;;;;;;11.75;10.50;18.10;99.90;;;;;;5016604;28;11140;-68
2022/05/20 04:57:30;;;;;;;;;13.75;10.75;18.00;99.90;;;;;;5012200;28;10341;-68
2022/05/20 05:00:10;;;;;;;;;16.25;14.00;18.00;99.90;;;;;;5016222;28;10390;-68
2022/05/20 05:02:45;;;;;;;;;12.75;10.00;17.90;99.90;;;;;;5017673;28;11715;-68
2022/05/20 05:05:19;;;;;;;;;12.50;10.50;17.80;99.90;;;;;;5028645;28;10575;-67
2022/05/20 05:07:53;;;;;;;;;10.25;10.25;17.80;99.90;;;;;;5014148;28;10853;-67
2022/05/20 05:10:30;;;;;;;;;10.00;9.25;17.80;99.90;;;;;;5016371;28;10361;-69
2022/05/20 05:13:02;;;;;;;;;15.00;13.00;17.80;99.90;;;;;;5012434;28;10648;-70
2022/05/20 05:15:33;;;;;;;;;11.00;10.50;17.80;99.90;;;;;;5000972;28;10609;-68
2022/05/20 05:18:11;;;;;;;;;8.75;8.75;17.80;99.90;;;;;;5013931;28;10784;-69
2022/05/20 05:20:47;;;;;;;;;9.25;7.75;17.80;99.90;;;;;;5025637;28;10520;-69
2022/05/20 05:23:22;;;;;;;;;9.50;9.50;17.70;99.90;;;;;;5013604;28;10800;-68
2022/05/20 05:25:54;;;;;;;;;11.25;10.50;17.80;99.90;;;;;;5027871;28;10670;-69
2022/05/20 05:28:30;;;;;;;;;9.75;9.75;17.70;99.90;;;;;;5010435;28;11126;-69
2022/05/20 05:31:01;;;;;;;;;11.75;11.25;17.70;99.90;;;;;;5015635;28;10539;-69
2022/05/20 05:33:33;;;;;;;;;8.00;8.00;17.70;99.90;;;;;;4992128;28;10605;-67
2022/05/20 05:36:03;;;;;;;;;16.00;10.00;17.70;99.90;;;;;;5016623;28;10646;-70
2022/05/20 05:38:35;;;;;;;;;10.00;8.75;17.60;99.90;;;;;;5016899;28;10595;-69
2022/05/20 05:41:06;;;;;;;;;11.00;8.25;17.60;99.90;;;;;;5014412;28;10643;-69
2022/05/20 05:43:38;;;;;;;;;9.50;7.50;17.60;99.90;;;;;;5017629;28;10650;-68
2022/05/20 05:46:10;;;;;;;;;12.00;10.50;17.50;99.90;;;;;;5015016;28;10499;-69
2022/05/20 05:48:40;;;;;;;;;10.50;10.50;17.50;99.90;;;;;;5017333;28;10450;-68
2022/05/20 05:51:12;;;;;;;;;11.00;8.00;17.50;99.90;;;;;;5022002;28;10630;-68
2022/05/20 05:53:43;;;;;;;;;10.75;10.25;17.50;99.90;;;;;;5013824;28;10629;-71
2022/05/20 05:56:14;;;;;;;;;8.75;8.75;17.50;99.90;;;;;;5010191;28;10710;-69
2022/05/20 05:58:48;;;;;;;;;13.00;10.75;17.40;99.90;;;;;;5016290;28;10619;-70
2022/05/20 06:01:22;;;;;;;;;15.00;9.50;17.40;99.90;;;;;;5016402;28;10523;-69
2022/05/20 06:03:53;;;;;;;;;11.00;11.00;17.50;99.90;;;;;;5013209;28;10867;-69
2022/05/20 06:06:24;;;;;;;;;11.00;10.00;17.50;99.90;;;;;;5009910;28;10766;-70
2022/05/20 06:08:58;;;;;;;;;10.25;8.50;17.40;99.90;;;;;;5015614;28;10812;-69
2022/05/20 06:11:29;;;;;;;;;11.75;11.75;17.40;99.90;;;;;;5009039;28;10975;-69
2022/05/20 06:14:02;;;;;;;;;12.25;10.25;17.40;99.90;;;;;;5016759;28;10699;-69
2022/05/20 06:16:32;;;;;;;;;11.50;10.25;17.40;99.90;;;;;;5013440;28;10946;-69
2022/05/20 06:19:04;;;;;;;;;8.50;8.50;17.30;99.90;;;;;;5016047;28;10736;-68
2022/05/20 06:21:37;;;;;;;;;8.50;8.50;17.30;99.90;;;;;;5013631;28;11188;-69
2022/05/20 06:24:09;;;;;;;;;10.00;10.00;17.20;99.90;;;;;;4996929;28;10726;-68
2022/05/20 06:26:41;;;;;;;;;10.75;9.75;17.20;99.90;;;;;;5009542;28;10846;-69
2022/05/20 06:29:12;;;;;;;;;7.75;7.75;17.20;99.90;;;;;;5012015;28;10815;-69
2022/05/20 06:31:43;;;;;;;;;8.00;8.00;17.20;99.90;;;;;;5012754;28;10759;-70
2022/05/20 06:34:14;;;;;;;;;13.25;12.75;17.20;99.90;;;;;;5008057;28;10789;-68
2022/05/20 06:39:49;;;;;;;;;10.50;10.50;17.10;99.90;;;;;;5015620;28;10829;-69
2022/05/20 06:42:19;;;;;;;;;12.25;12.25;17.10;99.90;;;;;;5009329;28;10959;-69
2022/05/20 06:44:56;;;;;;;;;10.50;10.00;17.10;99.90;;;;;;5015374;28;11140;-69
2022/05/20 06:47:29;;;;;;;;;11.75;8.00;17.00;99.90;;;;;;5010917;28;10964;-68
2022/05/20 06:50:01;;;;;;;;;11.00;8.25;17.00;99.90;;;;;;5015106;28;11189;-68
2022/05/20 06:52:33;;;;;;;;;14.50;14.50;17.00;99.90;;;;;;4998778;28;10998;-68
2022/05/20 06:55:09;;;;;;;;;13.25;12.00;17.00;99.90;;;;;;5011131;28;11216;-69
2022/05/20 06:57:42;;;;;;;;;10.00;10.00;16.90;99.90;;;;;;5010253;28;11896;-68
2022/05/20 07:00:13;;;;;;;;;10.75;9.50;16.90;99.90;;;;;;5013050;28;11170;-67
2022/05/20 07:02:44;;;;;;;;;14.75;14.50;16.90;99.90;;;;;;5011591;28;11580;-68
2022/05/20 07:05:17;;;;;;;;;13.75;10.75;17.00;99.90;;;;;;5018462;28;11680;-68
2022/05/20 07:07:50;;;;;;;;;10.50;10.50;16.90;99.90;;;;;;5017373;28;11506;-68
2022/05/20 07:10:21;;;;;;;;;10.00;10.00;16.90;99.90;;;;;;5030902;28;11440;-69
2022/05/20 07:12:52;;;;;;;;;11.00;10.75;16.80;99.90;;;;;;5016182;28;11376;-68
2022/05/20 07:15:22;;;;;;;;;8.75;8.75;16.90;99.90;;;;;;4999188;28;11222;-68
2022/05/20 07:17:53;;;;;;;;;9.50;7.75;16.90;99.90;;;;;;5014949;28;11817;-68
2022/05/20 07:20:23;;;;;;;;;10.75;8.00;16.80;99.90;;;;;;5015770;28;10914;-68
2022/05/20 07:22:54;;;;;;;;;13.25;11.50;16.80;99.90;;;;;;5018971;28;10816;-69
2022/05/20 07:25:26;;;;;;;;;11.25;10.00;16.80;99.90;;;;;;5010128;28;11803;-68
2022/05/20 07:28:00;;;;;;;;;12.50;11.75;16.70;99.90;;;;;;5015886;28;10870;-69
2022/05/20 07:30:30;;;;;;;;;6.25;6.25;16.70;99.90;;;;;;5009791;28;10973;-67
2022/05/20 07:33:01;;;;;;;;;12.00;10.50;16.70;99.90;;;;;;5013528;28;10839;-69
2022/05/20 07:35:31;;;;;;;;;8.25;5.75;16.70;99.90;;;;;;5015364;28;11027;-68
2022/05/20 07:38:02;;;;;;;;;9.00;8.25;16.70;99.90;;;;;;5014793;28;10839;-69
2022/05/20 07:40:34;;;;;;;;;14.00;12.00;16.70;99.90;;;;;;5016684;28;11034;-69
2022/05/20 07:43:11;;;;;;;;;10.50;8.75;16.60;99.90;;;;;;5013091;28;11034;-69
2022/05/20 07:45:42;;;;;;;;;8.00;8.00;16.60;99.90;;;;;;4998987;28;10873;-69
2022/05/20 07:48:14;;;;;;;;;9.50;8.50;16.60;99.90;;;;;;5012104;28;11098;-69
2022/05/20 07:50:47;;;;;;;;;12.50;10.75;16.60;99.90;;;;;;5025850;28;11024;-69
2022/05/20 07:53:29;;;;;;;;;7.25;7.25;16.60;99.90;;;;;;4999945;28;11087;-69
2022/05/20 07:56:10;;;;;;;;;7.25;7.25;16.60;99.90;;;;;;5019812;28;11804;-67
2022/05/20 07:58:47;;;;;;;;;8.50;8.50;16.60;99.90;;;;;;5034652;28;10984;-68
2022/05/20 08:01:23;;;;;;;;;8.00;8.00;16.50;99.90;;;;;;5015295;28;10898;-68
2022/05/20 08:06:59;;;;;;;;;11.25;7.00;16.50;99.90;;;;;;5011895;28;10899;-68
2022/05/20 08:09:30;;;;;;;;;6.75;6.75;16.50;99.90;;;;;;5012016;28;11597;-66
2022/05/20 08:12:01;;;;;;;;;7.50;6.75;16.50;99.90;;;;;;5016346;28;10830;-68
2022/05/20 08:14:37;;;;;;;;;9.00;9.00;16.50;99.90;;;;;;5016610;28;11616;-68
2022/05/20 08:17:09;;;;;;;;;7.00;7.00;16.50;99.90;;;;;;5032244;28;10989;-70
2022/05/20 08:19:42;;;;;;;;;8.50;7.75;16.50;99.90;;;;;;5029943;28;11019;-70
2022/05/20 08:22:13;;;;;;;;;7.75;6.00;16.40;99.90;;;;;;5004177;28;10868;-69
2022/05/20 08:24:43;;;;;;;;;8.00;8.00;16.40;99.90;;;;;;5017447;28;10805;-67
2022/05/20 08:27:15;;;;;;;;;9.00;6.00;16.40;99.90;;;;;;5015849;28;11103;-69
2022/05/20 08:29:46;;;;;;;;;10.00;9.25;16.40;99.90;;;;;;5010673;28;10946;-68
2022/05/20 08:32:18;;;;;;;;;11.00;10.00;16.40;99.90;;;;;;5017052;28;10859;-68
2022/05/20 08:34:51;;;;;;;;;9.00;9.00;16.30;99.90;;;;;;4996806;28;11016;-68
2022/05/20 08:37:22;;;;;;;;;9.00;6.50;16.30;99.90;;;;;;5013899;28;11676;-68
2022/05/20 08:39:53;;;;;;;;;9.75;7.75;16.30;99.90;;;;;;5016865;28;10779;-69
2022/05/20 08:42:30;;;;;;;;;5.50;5.50;16.30;99.90;;;;;;5010508;28;11730;-67
2022/05/20 08:45:03;;;;;;;;;7.25;7.25;16.30;99.90;;;;;;5016179;28;10982;-68
2022/05/20 08:47:48;;;;;;;;;8.75;8.75;16.20;99.90;;;;;;4997448;28;10885;-69
2022/05/20 08:50:30;;;;;;;;;12.50;9.25;16.20;99.90;;;;;;5013326;28;10909;-69
2022/05/20 08:53:00;;;;;;;;;10.50;9.00;16.20;99.90;;;;;;5016358;28;10902;-68
2022/05/20 08:55:31;;;;;;;;;7.50;7.50;16.20;99.90;;;;;;5015729;28;10782;-69
2022/05/20 08:58:05;;;;;;;;;8.00;8.00;16.20;99.90;;;;;;5013743;28;11101;-68
2022/05/20 09:00:37;;;;;;;;;8.75;6.00;16.10;99.90;;;;;;4999440;28;10988;-68
2022/05/20 09:03:08;;;;;;;;;7.00;7.00;16.10;99.90;;;;;;5015664;28;10949;-67
2022/05/20 09:05:43;;;;;;;;;7.75;6.25;16.10;99.90;;;;;;4998512;28;11016;-69
2022/05/20 09:08:24;;;;;;;;;14.75;9.25;16.10;99.90;;;;;;5024329;28;11823;-68
2022/05/20 09:10:58;;;;;;;;;9.25;6.25;16.00;99.90;;;;;;5013149;28;11028;-68
2022/05/20 09:16:29;;;;;;;;;8.00;6.50;16.00;99.90;;;;;;5018987;28;10947;-66
2022/05/20 09:19:25;;;;;;;;;8.25;8.25;16.00;99.90;;;;;;5014205;28;10951;-66
2022/05/20 09:22:06;;;;;;;;;8.00;8.00;16.00;99.90;;;;;;5003667;28;11052;-67
2022/05/20 09:24:44;;;;;;;;;7.00;7.00;16.00;99.90;;;;;;5013421;28;11462;-67
2022/05/20 09:27:21;;;;;;;;;6.00;6.00;15.90;99.90;;;;;;5008517;28;11106;-67
2022/05/20 09:29:58;;;;;;;;;10.25;8.00;15.90;99.90;;;;;;5017560;28;11069;-68
2022/05/20 09:33:00;;;;;;;;;8.75;8.75;15.90;99.90;;;;;;5015967;28;11064;-66
2022/05/20 09:35:35;;;;;;;;;7.00;7.00;15.90;99.90;;;;;;5015518;28;11001;-66
2022/05/20 09:38:26;;;;;;;;;8.50;8.50;15.80;99.90;;;;;;5015921;28;11101;-67
2022/05/20 09:40:57;;;;;;;;;10.25;6.00;15.70;99.90;;;;;;5016381;28;11032;-66
2022/05/20 09:43:36;;;;;;;;;8.75;8.75;15.70;99.90;;;;;;5011799;28;10963;-66
2022/05/20 09:46:13;;;;;;;;;8.00;7.00;15.70;99.90;;;;;;5024144;28;11188;-68
2022/05/20 09:48:59;;;;;;;;;9.50;7.00;15.70;99.90;;;;;;5024621;28;11476;-68
2022/05/20 09:51:48;;;;;;;;;7.00;7.00;15.70;99.90;;;;;;5018549;28;11460;-68
2022/05/20 09:54:26;;;;;;;;;8.75;6.75;15.70;99.90;;;;;;5011463;28;11165;-67
2022/05/20 09:57:13;;;;;;;;;8.50;6.25;15.70;99.90;;;;;;5025040;28;11361;-68
2022/05/20 09:59:48;;;;;;;;;6.00;6.00;15.60;99.90;;;;;;5007834;28;11234;-68
2022/05/20 10:02:30;;;;;;;;;8.75;8.00;15.60;99.90;;;;;;5016304;28;11100;-68
2022/05/20 10:05:13;;;;;;;;;10.50;10.50;15.60;99.90;;;;;;5030656;28;11149;-68
2022/05/20 10:08:06;;;;;;;;;7.50;6.50;15.70;99.90;;;;;;5007353;28;11880;-68
2022/05/20 10:11:09;;;;;;;;;6.00;6.00;15.60;99.90;;;;;;5012515;28;11299;-68
2022/05/20 10:13:45;;;;;;;;;10.25;9.00;15.60;99.90;;;;;;5016978;28;11291;-68
2022/05/20 10:16:37;;;;;;;;;6.25;6.25;15.50;99.90;;;;;;5011289;28;11236;-67
2022/05/20 10:19:21;;;;;;;;;8.00;8.00;15.50;99.90;;;;;;5016980;28;11118;-68
2022/05/20 10:22:04;;;;;;;;;7.75;6.25;15.50;99.90;;;;;;5011788;28;11514;-68
2022/05/20 10:24:57;;;;;;;;;8.50;8.50;15.50;99.90;;;;;;5016286;28;12418;-67
2022/05/20 10:27:50;;;;;;;;;9.00;7.75;15.50;99.90;;;;;;5007120;28;11203;-67
2022/05/20 10:33:32;;;;;;;;;6.25;6.00;15.50;99.90;;;;;;5008466;28;12361;-68
2022/05/20 10:36:34;;;;;;;;;10.50;9.50;15.50;99.90;;;;;;5014314;28;11024;-67
2022/05/20 10:39:10;;;;;;;;;8.75;6.00;15.40;99.90;;;;;;5006648;28;10983;-67
2022/05/20 10:42:06;;;;;;;;;6.25;6.25;15.50;99.90;;;;;;5013020;28;12525;-68
2022/05/20 10:50:57;;;;;;;;;6.50;5.25;15.40;99.90;;;;;;5009096;28;11994;-67
2022/05/20 10:54:03;;;;;;;;;9.00;7.25;15.40;99.90;;;;;;4992139;28;11458;-67
2022/05/20 10:56:34;;;;;;;;;7.00;7.00;15.40;99.90;;;;;;5032086;28;11413;-68
2022/05/20 10:59:42;;;;;;;;;6.75;6.00;15.30;99.90;;;;;;5014366;28;11490;-68
2022/05/20 11:02:42;;;;;;;;;8.00;8.00;15.30;99.90;;;;;;5015483;28;11447;-67
2022/05/20 11:05:28;;;;;;;;;11.00;6.25;15.30;99.90;;;;;;5013108;28;11521;-68
2022/05/20 11:08:08;;;;;;;;;6.75;6.75;15.20;99.90;;;;;;5010473;28;11874;-69
2022/05/20 11:11:00;;;;;;;;;8.00;7.00;15.20;99.90;;;;;;5014625;28;11444;-68
2022/05/20 11:14:09;;;;;;;;;6.75;6.75;15.20;99.90;;;;;;4997108;28;11484;-68
2022/05/20 11:16:47;;;;;;;;;6.00;6.00;15.20;99.90;;;;;;5008806;28;11153;-67
2022/05/20 11:19:30;;;;;;;;;4.75;3.50;15.20;99.90;;;;;;4999638;28;11237;-66
2022/05/20 11:22:23;;;;;;;;;9.00;7.00;15.20;99.90;;;;;;5012287;28;11240;-67
2022/05/20 11:25:30;;;;;;;;;5.25;5.25;15.10;99.90;;;;;;4986621;28;11135;-66
2022/05/20 11:28:09;;;;;;;;;7.00;5.50;15.10;99.90;;;;;;5027804;28;11471;-68
2022/05/20 11:30:52;;;;;;;;;5.00;5.00;15.10;99.90;;;;;;5032073;28;11492;-66
2022/05/20 11:34:05;;;;;;;;;6.00;6.00;15.10;99.90;;;;;;5011996;28;12244;-67
2022/05/20 11:37:06;;;;;;;;;8.00;7.00;15.10;99.90;;;;;;5007458;28;11466;-67
2022/05/20 11:39:58;;;;;;;;;6.25;5.50;15.10;99.90;;;;;;5004065;28;11442;-68
2022/05/20 11:42:43;;;;;;;;;5.50;5.50;15.00;99.90;;;;;;5012351;28;11495;-68
2022/05/20 11:45:41;;;;;;;;;6.25;6.00;15.00;99.90;;;;;;5017060;28;11243;-66
2022/05/20 11:48:48;;;;;;;;;6.75;6.75;15.00;99.90;;;;;;5026495;28;11578;-67
2022/05/20 11:51:24;;;;;;;;;6.00;6.00;15.00;99.90;;;;;;5011459;28;11443;-68
2022/05/20 11:54:10;;;;;;;;;4.00;4.00;15.00;99.90;;;;;;5024291;28;11461;-68
2022/05/20 11:56:58;;;;;;;;;7.00;7.00;15.00;99.90;;;;;;5016321;28;11458;-68
2022/05/20 11:59:40;;;;;;;;;5.25;5.25;14.90;99.90;;;;;;5017795;28;11635;-64
2022/05/20 12:02:17;;;;;;;;;5.25;5.00;15.00;99.90;;;;;;5019472;28;12160;-67
2022/05/20 12:04:49;;;;;;;;;7.00;7.00;14.90;99.90;;;;;;5018822;28;11518;-68
2022/05/20 12:07:23;;;;;;;;;6.25;6.00;14.90;99.90;;;;;;5011932;28;12025;-64
2022/05/20 12:09:59;;;;;;;;;5.50;5.50;14.90;99.90;;;;;;5009003;28;11637;-69
2022/05/20 12:12:32;;;;;;;;;8.00;6.25;14.90;99.90;;;;;;5027628;28;11519;-69
2022/05/20 12:15:17;;;;;;;;;7.00;7.00;14.90;99.90;;;;;;5012998;28;11493;-65
2022/05/20 12:17:53;;;;;;;;;6.75;6.75;14.90;99.90;;;;;;5017217;28;12197;-66
2022/05/20 12:26:25;;;;;;;;;6.25;6.25;14.80;99.90;;;;;;5017039;28;11506;-66
2022/05/20 12:28:55;;;;;;;;;5.25;5.25;14.80;99.90;;;;;;5018329;28;11498;-68
2022/05/20 12:31:30;;;;;;;;;6.25;5.00;14.80;99.90;;;;;;5014398;28;11503;-68
2022/05/20 12:34:07;;;;;;;;;7.00;5.25;14.80;99.90;;;;;;5018939;28;11479;-66
2022/05/20 12:36:40;;;;;;;;;7.25;7.25;14.80;99.90;;;;;;5017019;28;11440;-67
2022/05/20 12:39:12;;;;;;;;;7.50;7.25;14.80;99.90;;;;;;5014195;28;11451;-67
2022/05/20 12:41:49;;;;;;;;;7.00;5.25;14.70;99.90;;;;;;5016537;28;11247;-67
2022/05/20 12:44:23;;;;;;;;;6.50;6.50;14.70;99.90;;;;;;5015716;28;11497;-67
2022/05/20 12:47:06;;;;;;;;;8.50;7.00;14.70;99.90;;;;;;5016274;28;12182;-66
2022/05/20 12:49:51;;;;;;;;;7.00;5.75;14.70;99.90;;;;;;5030754;28;11409;-67
2022/05/20 12:52:46;;;;;;;;;6.75;6.00;14.70;99.90;;;;;;5000083;28;11555;-64
2022/05/20 12:55:30;;;;;;;;;6.75;4.75;14.60;99.90;;;;;;5025676;28;11497;-68
2022/05/20 12:58:09;;;;;;;;;9.00;9.00;14.60;99.90;;;;;;5013024;28;12258;-67
2022/05/20 13:00:48;;;;;;;;;5.75;5.25;14.60;99.90;;;;;;5027525;28;11614;-67
2022/05/20 13:03:29;;;;;;;;;6.50;5.75;14.60;99.90;;;;;;5019018;28;11430;-68
2022/05/20 13:06:14;;;;;;;;;7.75;6.50;14.50;99.90;;;;;;5015498;28;12192;-67
2022/05/20 13:08:53;;;;;;;;;7.25;6.25;14.50;99.90;;;;;;5012656;28;11638;-66
2022/05/20 13:11:26;;;;;;;;;6.75;6.75;14.50;99.90;;;;;;5013245;28;11622;-68
2022/05/20 13:13:59;;;;;;;;;8.00;8.00;14.50;99.90;;;;;;5029170;28;15485;-64
2022/05/20 13:16:30;;;;;;;;;7.50;6.00;14.50;99.90;;;;;;5011616;28;12172;-65
2022/05/20 13:19:04;;;;;;;;;8.50;7.25;14.50;99.90;;;;;;5017909;28;11584;-67
2022/05/20 13:21:44;;;;;;;;;5.00;3.50;14.50;99.90;;;;;;5016698;28;11565;-68
2022/05/20 13:24:18;;;;;;;;;8.50;8.00;14.50;99.90;;;;;;5021417;28;11611;-67
2022/05/20 13:26:49;;;;;;;;;6.75;6.25;14.50;99.90;;;;;;5006139;28;11470;-68
2022/05/20 13:29:22;;;;;;;;;7.00;7.00;14.40;99.90;;;;;;5016563;28;11523;-66
2022/05/20 13:32:13;;;;;;;;;9.75;8.75;14.30;99.90;;;;;;5001849;28;11526;-68
2022/05/20 13:34:45;;;;;;;;;9.75;9.75;14.30;99.90;;;;;;5008035;28;11497;-68
2022/05/20 13:37:21;;;;;;;;;7.75;7.75;14.30;99.90;;;;;;5005936;28;11560;-68
2022/05/20 13:40:02;;;;;;;;;10.50;7.75;14.30;99.90;;;;;;4994664;28;11668;-67
2022/05/20 13:42:33;;;;;;;;;10.50;8.50;14.30;99.90;;;;;;5027285;28;11468;-66
2022/05/20 13:45:16;;;;;;;;;7.50;7.50;14.30;99.90;;;;;;5029167;28;11487;-68
2022/05/20 13:50:41;;;;;;;;;8.50;7.00;14.30;99.90;;;;;;5016285;28;11485;-68
2022/05/20 13:53:13;;;;;;;;;8.75;8.75;14.30;99.90;;;;;;5021132;28;11620;-68
2022/05/20 13:55:47;;;;;;;;;6.25;6.25;14.30;99.90;;;;;;5009087;28;12430;-68
2022/05/20 13:58:19;;;;;;;;;9.00;9.00;14.30;99.90;;;;;;4997628;28;11469;-68
2022/05/20 14:00:52;;;;;;;;;7.50;5.75;14.30;99.90;;;;;;4995908;28;11511;-68
2022/05/20 14:03:25;;;;;;;;;10.25;9.00;14.30;99.90;;;;;;5010552;28;11474;-68
2022/05/20 14:06:14;;;;;;;;;7.00;7.00;14.30;99.90;;;;;;5016688;28;11432;-67
2022/05/20 14:08:52;;;;;;;;;10.00;8.50;14.30;99.90;;;;;;5027668;28;11495;-67
2022/05/20 14:11:39;;;;;;;;;6.25;6.25;14.30;99.90;;;;;;5007268;28;11575;-66
2022/05/20 14:14:20;;;;;;;;;9.00;9.00;14.30;99.90;;;;;;5013719;28;11505;-67
2022/05/20 14:16:53;;;;;;;;;8.25;8.25;14.30;99.90;;;;;;4997530;28;11524;-67